sensor_id;sensor_type;location;lat;lon;timestamp;temperature;humidity
31837;DHT22;18401;49.344;6.240;2022-12-31T00:01:50;12.30;99.90
31837;DHT22;18401;49.344;6.240;2022-12-31T00:04:15;12.40;99.90
31837;DHT22;18401;49.344;6.240;2022-12-31T00:06:41;12.30;99.90
31837;DHT22;18401;49.344;6.240;2022-12-31T00:09:07;12.40;99.90
31837;DHT22;18401;49.344;6.240;2022-12-31T00:11:34;12.50;99.90
31837;DHT22;18401;49.344;6.240;2022-12-31T00:14:00;12.70;99.90
31837;DHT22;18401;49.344;6.240;2022-12-31T00:16:31;12.80;99.90
31837;DHT22;18401;49.344;6.240;2022-12-31T00:18:59;13.00;99.90
31837;DHT22;18401;49.344;6.240;2022-12-31T00:21:26;13.10;99.90
31837;DHT22;18401;49.344;6.240;2022-12-31T00:23:52;13.30;99.90
31837;DHT22;18401;49.344;6.240;2022-12-31T00:26:20;13.40;99.90
31837;DHT22;18401;49.344;6.240;2022-12-31T00:28:46;13.50;99.90
31837;DHT22;18401;49.344;6.240;2022-12-31T00:31:21;13.60;99.90
31837;DHT22;18401;49.344;6.240;2022-12-31T00:33:46;13.70;99.90
31837;DHT22;18401;49.344;6.240;2022-12-31T00:36:20;13.80;99.90
31837;DHT22;18401;49.344;6.240;2022-12-31T00:38:48;13.80;99.90
31837;DHT22;18401;49.344;6.240;2022-12-31T00:41:15;13.80;99.90
31837;DHT22;18401;49.344;6.240;2022-12-31T00:43:41;13.90;99.90
31837;DHT22;18401;49.344;6.240;2022-12-31T00:46:07;13.90;99.90
31837;DHT22;18401;49.344;6.240;2022-12-31T00:48:34;13.90;99.90
31837;DHT22;18401;49.344;6.240;2022-12-31T00:51:01;13.90;99.90
31837;DHT22;18401;49.344;6.240;2022-12-31T00:53:27;13.80;99.90
31837;DHT22;18401;49.344;6.240;2022-12-31T00:55:59;13.80;99.90
31837;DHT22;18401;49.344;6.240;2022-12-31T00:58:25;13.70;99.90
31837;DHT22;18401;49.344;6.240;2022-12-31T01:00:51;13.70;99.90
31837;DHT22;18401;49.344;6.240;2022-12-31T01:03:17;13.70;99.90
31837;DHT22;18401;49.344;6.240;2022-12-31T01:05:43;13.70;99.90
31837;DHT22;18401;49.344;6.240;2022-12-31T01:08:08;13.70;99.90
31837;DHT22;18401;49.344;6.240;2022-12-31T01:10:34;13.70;99.90
31837;DHT22;18401;49.344;6.240;2022-12-31T01:13:19;13.70;99.90
31837;DHT22;18401;49.344;6.240;2022-12-31T01:15:44;13.80;99.90
31837;DHT22;18401;49.344;6.240;2022-12-31T01:18:10;13.70;99.90
31837;DHT22;18401;49.344;6.240;2022-12-31T01:20:37;13.80;99.90
31837;DHT22;18401;49.344;6.240;2022-12-31T01:23:04;13.80;99.90
31837;DHT22;18401;49.344;6.240;2022-12-31T01:25:30;13.80;99.90
31837;DHT22;18401;49.344;6.240;2022-12-31T01:27:55;13.80;99.90
31837;DHT22;18401;49.344;6.240;2022-12-31T01:30:21;13.70;99.90
31837;DHT22;18401;49.344;6.240;2022-12-31T01:32:47;13.70;99.90
31837;DHT22;18401;49.344;6.240;2022-12-31T01:35:12;13.60;99.90
31837;DHT22;18401;49.344;6.240;2022-12-31T01:37:38;13.60;99.90
31837;DHT22;18401;49.344;6.240;2022-12-31T01:40:04;13.50;99.90
31837;DHT22;18401;49.344;6.240;2022-12-31T01:42:30;13.40;99.90
31837;DHT22;18401;49.344;6.240;2022-12-31T01:44:56;13.40;99.90
31837;DHT22;18401;49.344;6.240;2022-12-31T01:47:37;13.40;99.90
31837;DHT22;18401;49.344;6.240;2022-12-31T01:50:17;13.40;99.90
31837;DHT22;18401;49.344;6.240;2022-12-31T01:52:49;13.30;99.90
31837;DHT22;18401;49.344;6.240;2022-12-31T01:55:23;13.30;99.90
31837;DHT22;18401;49.344;6.240;2022-12-31T01:57:52;13.30;99.90
31837;DHT22;18401;49.344;6.240;2022-12-31T02:00:20;13.20;99.90
31837;DHT22;18401;49.344;6.240;2022-12-31T02:02:46;13.30;99.90
31837;DHT22;18401;49.344;6.240;2022-12-31T02:07:49;13.30;99.90
31837;DHT22;18401;49.344;6.240;2022-12-31T02:10:16;13.40;99.90
31837;DHT22;18401;49.344;6.240;2022-12-31T02:12:42;13.40;99.90
31837;DHT22;18401;49.344;6.240;2022-12-31T02:15:08;13.40;99.90
31837;DHT22;18401;49.344;6.240;2022-12-31T02:17:53;13.50;99.90
31837;DHT22;18401;49.344;6.240;2022-12-31T02:23:57;13.50;99.90
31837;DHT22;18401;49.344;6.240;2022-12-31T02:26:57;13.60;99.90
31837;DHT22;18401;49.344;6.240;2022-12-31T02:35:28;13.30;99.90
31837;DHT22;18401;49.344;6.240;2022-12-31T02:37:58;13.10;99.90
31837;DHT22;18401;49.344;6.240;2022-12-31T02:40:25;12.90;99.90
31837;DHT22;18401;49.344;6.240;2022-12-31T02:42:51;12.90;99.90
31837;DHT22;18401;49.344;6.240;2022-12-31T02:45:19;12.80;99.90
31837;DHT22;18401;49.344;6.240;2022-12-31T02:50:42;12.70;99.90
31837;DHT22;18401;49.344;6.240;2022-12-31T02:56:26;12.70;99.90
31837;DHT22;18401;49.344;6.240;2022-12-31T02:59:25;12.70;99.90
31837;DHT22;18401;49.344;6.240;2022-12-31T03:02:15;12.70;99.90
31837;DHT22;18401;49.344;6.240;2022-12-31T03:04:51;12.70;99.90
31837;DHT22;18401;49.344;6.240;2022-12-31T03:07:19;12.70;99.90
31837;DHT22;18401;49.344;6.240;2022-12-31T03:09:46;12.70;99.90
31837;DHT22;18401;49.344;6.240;2022-12-31T03:12:12;12.70;99.90
31837;DHT22;18401;49.344;6.240;2022-12-31T03:14:57;12.80;99.90
31837;DHT22;18401;49.344;6.240;2022-12-31T03:17:23;12.80;99.90
31837;DHT22;18401;49.344;6.240;2022-12-31T03:19:49;12.80;99.90
31837;DHT22;18401;49.344;6.240;2022-12-31T03:22:37;12.80;99.90
31837;DHT22;18401;49.344;6.240;2022-12-31T03:25:07;12.80;99.90
31837;DHT22;18401;49.344;6.240;2022-12-31T03:27:52;12.80;99.90
31837;DHT22;18401;49.344;6.240;2022-12-31T03:30:19;12.90;99.90
31837;DHT22;18401;49.344;6.240;2022-12-31T03:32:47;12.90;99.90
31837;DHT22;18401;49.344;6.240;2022-12-31T03:35:15;12.90;99.90
31837;DHT22;18401;49.344;6.240;2022-12-31T03:37:42;12.90;99.90
31837;DHT22;18401;49.344;6.240;2022-12-31T03:40:10;12.90;99.90
31837;DHT22;18401;49.344;6.240;2022-12-31T03:42:35;12.90;99.90
31837;DHT22;18401;49.344;6.240;2022-12-31T03:45:02;12.90;99.90
31837;DHT22;18401;49.344;6.240;2022-12-31T03:47:28;13.00;99.90
31837;DHT22;18401;49.344;6.240;2022-12-31T03:49:53;12.90;99.90
31837;DHT22;18401;49.344;6.240;2022-12-31T03:52:19;13.00;99.90
31837;DHT22;18401;49.344;6.240;2022-12-31T03:54:45;13.00;99.90
31837;DHT22;18401;49.344;6.240;2022-12-31T03:57:10;13.00;99.90
31837;DHT22;18401;49.344;6.240;2022-12-31T03:59:37;13.00;99.90
31837;DHT22;18401;49.344;6.240;2022-12-31T04:02:03;13.00;99.90
31837;DHT22;18401;49.344;6.240;2022-12-31T04:04:28;13.10;99.90
31837;DHT22;18401;49.344;6.240;2022-12-31T04:06:54;13.20;99.90
31837;DHT22;18401;49.344;6.240;2022-12-31T04:09:20;13.20;99.90
31837;DHT22;18401;49.344;6.240;2022-12-31T04:11:45;13.20;99.90
31837;DHT22;18401;49.344;6.240;2022-12-31T04:14:11;13.20;99.90
31837;DHT22;18401;49.344;6.240;2022-12-31T04:16:37;13.30;99.90
31837;DHT22;18401;49.344;6.240;2022-12-31T04:19:03;13.50;99.90
31837;DHT22;18401;49.344;6.240;2022-12-31T04:21:28;13.80;99.90
31837;DHT22;18401;49.344;6.240;2022-12-31T04:23:54;13.90;99.90
31837;DHT22;18401;49.344;6.240;2022-12-31T04:26:20;14.10;99.90
31837;DHT22;18401;49.344;6.240;2022-12-31T04:28:46;14.30;99.90
31837;DHT22;18401;49.344;6.240;2022-12-31T04:31:11;14.40;99.90
31837;DHT22;18401;49.344;6.240;2022-12-31T04:33:37;14.40;99.90
31837;DHT22;18401;49.344;6.240;2022-12-31T04:36:04;14.50;99.90
31837;DHT22;18401;49.344;6.240;2022-12-31T04:38:30;14.50;99.90
31837;DHT22;18401;49.344;6.240;2022-12-31T04:40:56;14.60;99.90
31837;DHT22;18401;49.344;6.240;2022-12-31T04:43:52;14.50;99.90
31837;DHT22;18401;49.344;6.240;2022-12-31T04:46:20;14.50;99.90
31837;DHT22;18401;49.344;6.240;2022-12-31T04:48:46;14.40;99.90
31837;DHT22;18401;49.344;6.240;2022-12-31T04:51:12;14.40;99.90
31837;DHT22;18401;49.344;6.240;2022-12-31T04:53:38;14.40;99.90
31837;DHT22;18401;49.344;6.240;2022-12-31T04:56:05;14.50;99.90
31837;DHT22;18401;49.344;6.240;2022-12-31T04:58:31;14.50;99.90
31837;DHT22;18401;49.344;6.240;2022-12-31T05:00:57;14.50;99.90
31837;DHT22;18401;49.344;6.240;2022-12-31T05:03:24;14.50;99.90
31837;DHT22;18401;49.344;6.240;2022-12-31T05:05:50;14.50;99.90
31837;DHT22;18401;49.344;6.240;2022-12-31T05:08:17;14.50;99.90
31837;DHT22;18401;49.344;6.240;2022-12-31T05:10:48;14.70;99.90
31837;DHT22;18401;49.344;6.240;2022-12-31T05:13:14;14.60;99.90
31837;DHT22;18401;49.344;6.240;2022-12-31T05:15:40;14.70;99.90
31837;DHT22;18401;49.344;6.240;2022-12-31T05:18:07;14.70;99.90
31837;DHT22;18401;49.344;6.240;2022-12-31T05:20:33;14.80;99.90
31837;DHT22;18401;49.344;6.240;2022-12-31T05:22:59;14.80;99.90
31837;DHT22;18401;49.344;6.240;2022-12-31T05:25:25;14.80;99.90
31837;DHT22;18401;49.344;6.240;2022-12-31T05:27:50;14.80;99.90
31837;DHT22;18401;49.344;6.240;2022-12-31T05:30:16;14.80;99.90
31837;DHT22;18401;49.344;6.240;2022-12-31T05:32:43;14.80;99.90
31837;DHT22;18401;49.344;6.240;2022-12-31T05:35:09;14.70;99.90
31837;DHT22;18401;49.344;6.240;2022-12-31T05:37:35;14.80;99.90
31837;DHT22;18401;49.344;6.240;2022-12-31T05:40:01;14.70;99.90
31837;DHT22;18401;49.344;6.240;2022-12-31T05:42:27;14.70;99.90
31837;DHT22;18401;49.344;6.240;2022-12-31T05:44:53;14.80;99.90
31837;DHT22;18401;49.344;6.240;2022-12-31T05:47:18;14.80;99.90
31837;DHT22;18401;49.344;6.240;2022-12-31T05:49:44;14.60;99.90
31837;DHT22;18401;49.344;6.240;2022-12-31T05:52:10;14.70;99.90
31837;DHT22;18401;49.344;6.240;2022-12-31T05:54:36;14.60;99.90
31837;DHT22;18401;49.344;6.240;2022-12-31T05:57:03;14.60;99.90
31837;DHT22;18401;49.344;6.240;2022-12-31T05:59:29;14.60;99.90
31837;DHT22;18401;49.344;6.240;2022-12-31T06:01:55;14.60;99.90
31837;DHT22;18401;49.344;6.240;2022-12-31T06:04:20;14.70;99.90
31837;DHT22;18401;49.344;6.240;2022-12-31T06:06:46;14.70;99.90
31837;DHT22;18401;49.344;6.240;2022-12-31T06:09:14;14.70;99.90
31837;DHT22;18401;49.344;6.240;2022-12-31T06:11:40;14.70;99.90
31837;DHT22;18401;49.344;6.240;2022-12-31T06:14:05;14.70;99.90
31837;DHT22;18401;49.344;6.240;2022-12-31T06:16:31;14.60;99.90
31837;DHT22;18401;49.344;6.240;2022-12-31T06:18:57;14.60;99.90
31837;DHT22;18401;49.344;6.240;2022-12-31T06:21:22;14.60;99.90
31837;DHT22;18401;49.344;6.240;2022-12-31T06:23:48;14.50;99.90
31837;DHT22;18401;49.344;6.240;2022-12-31T06:26:15;14.60;99.90
31837;DHT22;18401;49.344;6.240;2022-12-31T06:28:41;14.60;99.90
31837;DHT22;18401;49.344;6.240;2022-12-31T06:31:09;14.60;99.90
31837;DHT22;18401;49.344;6.240;2022-12-31T06:33:35;14.50;99.90
31837;DHT22;18401;49.344;6.240;2022-12-31T06:36:04;14.50;99.90
31837;DHT22;18401;49.344;6.240;2022-12-31T06:38:32;14.50;99.90
31837;DHT22;18401;49.344;6.240;2022-12-31T06:41:10;14.40;99.90
31837;DHT22;18401;49.344;6.240;2022-12-31T06:43:37;14.50;99.90
31837;DHT22;18401;49.344;6.240;2022-12-31T06:46:04;14.60;99.90
31837;DHT22;18401;49.344;6.240;2022-12-31T06:48:30;14.60;99.90
31837;DHT22;18401;49.344;6.240;2022-12-31T06:50:56;14.60;99.90
31837;DHT22;18401;49.344;6.240;2022-12-31T06:53:22;14.60;99.90
31837;DHT22;18401;49.344;6.240;2022-12-31T06:55:48;14.60;99.90
31837;DHT22;18401;49.344;6.240;2022-12-31T06:58:15;14.50;99.90
31837;DHT22;18401;49.344;6.240;2022-12-31T07:00:55;14.50;99.90
31837;DHT22;18401;49.344;6.240;2022-12-31T07:03:39;14.50;99.90
31837;DHT22;18401;49.344;6.240;2022-12-31T07:06:08;14.60;99.90
31837;DHT22;18401;49.344;6.240;2022-12-31T07:11:34;14.60;99.90
31837;DHT22;18401;49.344;6.240;2022-12-31T07:14:36;14.50;99.90
31837;DHT22;18401;49.344;6.240;2022-12-31T07:20:00;14.60;99.90
31837;DHT22;18401;49.344;6.240;2022-12-31T07:22:27;14.60;99.90
31837;DHT22;18401;49.344;6.240;2022-12-31T07:24:53;14.60;99.90
31837;DHT22;18401;49.344;6.240;2022-12-31T07:27:48;14.60;99.90
31837;DHT22;18401;49.344;6.240;2022-12-31T07:30:20;14.60;99.90
31837;DHT22;18401;49.344;6.240;2022-12-31T07:35:57;14.70;99.90
31837;DHT22;18401;49.344;6.240;2022-12-31T07:38:41;14.70;99.90
31837;DHT22;18401;49.344;6.240;2022-12-31T07:46:58;14.70;99.90
31837;DHT22;18401;49.344;6.240;2022-12-31T07:49:25;14.80;99.90
31837;DHT22;18401;49.344;6.240;2022-12-31T07:51:51;14.80;99.90
31837;DHT22;18401;49.344;6.240;2022-12-31T07:54:17;14.80;99.90
31837;DHT22;18401;49.344;6.240;2022-12-31T07:56:43;14.80;99.90
31837;DHT22;18401;49.344;6.240;2022-12-31T08:01:54;14.80;99.90
31837;DHT22;18401;49.344;6.240;2022-12-31T08:07:18;14.80;99.90
31837;DHT22;18401;49.344;6.240;2022-12-31T08:09:58;14.80;99.90
31837;DHT22;18401;49.344;6.240;2022-12-31T08:12:31;14.70;99.90
31837;DHT22;18401;49.344;6.240;2022-12-31T08:14:58;14.60;99.90
31837;DHT22;18401;49.344;6.240;2022-12-31T08:17:24;14.60;99.90
31837;DHT22;18401;49.344;6.240;2022-12-31T08:19:50;14.70;99.90
31837;DHT22;18401;49.344;6.240;2022-12-31T08:22:35;14.80;99.90
31837;DHT22;18401;49.344;6.240;2022-12-31T08:25:29;14.80;99.90
31837;DHT22;18401;49.344;6.240;2022-12-31T08:30:54;14.90;99.90
31837;DHT22;18401;49.344;6.240;2022-12-31T08:33:28;14.90;99.90
31837;DHT22;18401;49.344;6.240;2022-12-31T08:36:10;14.90;99.90
31837;DHT22;18401;49.344;6.240;2022-12-31T08:44:48;14.80;99.90
31837;DHT22;18401;49.344;6.240;2022-12-31T08:49:57;15.10;99.90
31837;DHT22;18401;49.344;6.240;2022-12-31T08:52:25;15.10;99.90
31837;DHT22;18401;49.344;6.240;2022-12-31T08:54:51;15.20;99.90
31837;DHT22;18401;49.344;6.240;2022-12-31T08:57:26;15.40;99.90
31837;DHT22;18401;49.344;6.240;2022-12-31T09:00:01;15.40;99.90
31837;DHT22;18401;49.344;6.240;2022-12-31T09:13:49;15.40;99.90
31837;DHT22;18401;49.344;6.240;2022-12-31T09:18:59;15.40;99.90
31837;DHT22;18401;49.344;6.240;2022-12-31T09:21:25;15.50;99.90
31837;DHT22;18401;49.344;6.240;2022-12-31T09:23:51;15.50;99.90
31837;DHT22;18401;49.344;6.240;2022-12-31T09:34:57;15.80;99.90
31837;DHT22;18401;49.344;6.240;2022-12-31T09:37:45;16.00;99.90
31837;DHT22;18401;49.344;6.240;2022-12-31T09:46:12;16.20;99.90
31837;DHT22;18401;49.344;6.240;2022-12-31T09:48:59;16.20;99.90
31837;DHT22;18401;49.344;6.240;2022-12-31T09:51:30;16.40;99.90
31837;DHT22;18401;49.344;6.240;2022-12-31T09:56:31;16.40;99.90
31837;DHT22;18401;49.344;6.240;2022-12-31T10:05:02;16.60;99.90
31837;DHT22;18401;49.344;6.240;2022-12-31T10:07:55;16.60;99.90
31837;DHT22;18401;49.344;6.240;2022-12-31T10:10:37;16.50;99.90
31837;DHT22;18401;49.344;6.240;2022-12-31T10:13:20;16.50;99.90
31837;DHT22;18401;49.344;6.240;2022-12-31T10:21:47;16.50;99.90
31837;DHT22;18401;49.344;6.240;2022-12-31T10:30:20;15.90;99.90
31837;DHT22;18401;49.344;6.240;2022-12-31T10:35:58;15.70;99.90
31837;DHT22;18401;49.344;6.240;2022-12-31T10:38:47;15.80;99.90
31837;DHT22;18401;49.344;6.240;2022-12-31T10:44:27;16.00;99.90
31837;DHT22;18401;49.344;6.240;2022-12-31T10:47:30;16.20;99.90
31837;DHT22;18401;49.344;6.240;2022-12-31T11:01:44;18.40;99.90
31837;DHT22;18401;49.344;6.240;2022-12-31T11:04:44;18.30;99.90
31837;DHT22;18401;49.344;6.240;2022-12-31T11:33:03;19.60;99.90
31837;DHT22;18401;49.344;6.240;2022-12-31T11:38:51;19.90;99.90
31837;DHT22;18401;49.344;6.240;2022-12-31T11:44:39;19.80;99.90
31837;DHT22;18401;49.344;6.240;2022-12-31T11:47:49;19.90;99.90
31837;DHT22;18401;49.344;6.240;2022-12-31T11:56:18;18.80;99.90
31837;DHT22;18401;49.344;6.240;2022-12-31T11:58:54;18.90;99.90
31837;DHT22;18401;49.344;6.240;2022-12-31T12:01:38;18.70;99.90
31837;DHT22;18401;49.344;6.240;2022-12-31T12:04:08;18.80;99.90
31837;DHT22;18401;49.344;6.240;2022-12-31T12:06:34;18.40;99.90
31837;DHT22;18401;49.344;6.240;2022-12-31T12:09:12;18.20;99.90
31837;DHT22;18401;49.344;6.240;2022-12-31T12:11:40;18.20;99.90
31837;DHT22;18401;49.344;6.240;2022-12-31T12:14:29;18.10;99.90
31837;DHT22;18401;49.344;6.240;2022-12-31T12:16:56;17.80;99.90
31837;DHT22;18401;49.344;6.240;2022-12-31T12:19:25;17.80;99.90
31837;DHT22;18401;49.344;6.240;2022-12-31T12:21:51;17.90;99.90
31837;DHT22;18401;49.344;6.240;2022-12-31T12:24:28;17.90;99.90
31837;DHT22;18401;49.344;6.240;2022-12-31T12:26:55;17.90;99.90
31837;DHT22;18401;49.344;6.240;2022-12-31T12:29:26;18.10;99.90
31837;DHT22;18401;49.344;6.240;2022-12-31T12:32:02;18.10;99.90
31837;DHT22;18401;49.344;6.240;2022-12-31T12:34:33;18.00;99.90
31837;DHT22;18401;49.344;6.240;2022-12-31T12:37:00;18.20;99.90
31837;DHT22;18401;49.344;6.240;2022-12-31T12:39:33;18.00;99.90
31837;DHT22;18401;49.344;6.240;2022-12-31T12:42:13;17.90;99.90
31837;DHT22;18401;49.344;6.240;2022-12-31T12:44:39;17.70;99.90
31837;DHT22;18401;49.344;6.240;2022-12-31T12:47:10;17.70;99.90
31837;DHT22;18401;49.344;6.240;2022-12-31T12:49:40;17.60;99.90
31837;DHT22;18401;49.344;6.240;2022-12-31T12:58:31;17.00;99.90
31837;DHT22;18401;49.344;6.240;2022-12-31T13:01:30;16.90;99.90
31837;DHT22;18401;49.344;6.240;2022-12-31T13:04:24;16.80;99.90
31837;DHT22;18401;49.344;6.240;2022-12-31T13:07:08;16.70;99.90
31837;DHT22;18401;49.344;6.240;2022-12-31T13:12:34;16.70;99.90
31837;DHT22;18401;49.344;6.240;2022-12-31T13:15:38;16.60;99.90
31837;DHT22;18401;49.344;6.240;2022-12-31T13:20:57;16.40;99.90
31837;DHT22;18401;49.344;6.240;2022-12-31T13:26:06;16.20;99.90
31837;DHT22;18401;49.344;6.240;2022-12-31T13:28:35;16.10;99.90
31837;DHT22;18401;49.344;6.240;2022-12-31T13:31:09;16.10;99.90
31837;DHT22;18401;49.344;6.240;2022-12-31T13:33:44;16.10;99.90
31837;DHT22;18401;49.344;6.240;2022-12-31T13:36:19;16.10;99.90
31837;DHT22;18401;49.344;6.240;2022-12-31T13:51:46;15.80;99.90
31837;DHT22;18401;49.344;6.240;2022-12-31T13:57:04;15.70;99.90
31837;DHT22;18401;49.344;6.240;2022-12-31T13:59:38;15.60;99.90
31837;DHT22;18401;49.344;6.240;2022-12-31T14:07:47;15.50;99.90
31837;DHT22;18401;49.344;6.240;2022-12-31T14:10:15;15.50;99.90
31837;DHT22;18401;49.344;6.240;2022-12-31T14:16:18;15.50;99.90
31837;DHT22;18401;49.344;6.240;2022-12-31T14:18:49;15.50;99.90
31837;DHT22;18401;49.344;6.240;2022-12-31T14:21:24;15.50;99.90
31837;DHT22;18401;49.344;6.240;2022-12-31T14:24:12;15.40;99.90
31837;DHT22;18401;49.344;6.240;2022-12-31T14:26:49;15.40;99.90
31837;DHT22;18401;49.344;6.240;2022-12-31T14:29:28;15.30;99.90
31837;DHT22;18401;49.344;6.240;2022-12-31T14:34:52;15.20;99.90
31837;DHT22;18401;49.344;6.240;2022-12-31T14:37:43;15.20;99.90
31837;DHT22;18401;49.344;6.240;2022-12-31T14:40:22;15.20;99.90
31837;DHT22;18401;49.344;6.240;2022-12-31T14:45:34;15.00;99.90
31837;DHT22;18401;49.344;6.240;2022-12-31T14:51:03;14.90;99.90
31837;DHT22;18401;49.344;6.240;2022-12-31T14:53:29;14.80;99.90
31837;DHT22;18401;49.344;6.240;2022-12-31T14:58:37;14.80;99.90
31837;DHT22;18401;49.344;6.240;2022-12-31T15:01:18;14.80;99.90
31837;DHT22;18401;49.344;6.240;2022-12-31T15:03:47;14.70;99.90
31837;DHT22;18401;49.344;6.240;2022-12-31T15:14:36;14.50;99.90
31837;DHT22;18401;49.344;6.240;2022-12-31T15:17:12;14.50;99.90
31837;DHT22;18401;49.344;6.240;2022-12-31T15:25:00;14.30;99.90
31837;DHT22;18401;49.344;6.240;2022-12-31T15:27:37;14.20;99.90
31837;DHT22;18401;49.344;6.240;2022-12-31T15:30:25;14.30;99.90
31837;DHT22;18401;49.344;6.240;2022-12-31T15:32:54;14.40;99.90
31837;DHT22;18401;49.344;6.240;2022-12-31T15:38:15;14.30;99.90
31837;DHT22;18401;49.344;6.240;2022-12-31T15:40:49;14.30;99.90
31837;DHT22;18401;49.344;6.240;2022-12-31T15:45:50;14.20;99.90
31837;DHT22;18401;49.344;6.240;2022-12-31T15:48:31;14.10;99.90
31837;DHT22;18401;49.344;6.240;2022-12-31T15:51:00;14.00;99.90
31837;DHT22;18401;49.344;6.240;2022-12-31T15:53:39;14.00;99.90
31837;DHT22;18401;49.344;6.240;2022-12-31T15:56:07;13.90;99.90
31837;DHT22;18401;49.344;6.240;2022-12-31T15:58:38;13.90;99.90
31837;DHT22;18401;49.344;6.240;2022-12-31T16:03:34;13.90;99.90
31837;DHT22;18401;49.344;6.240;2022-12-31T16:06:03;14.00;99.90
31837;DHT22;18401;49.344;6.240;2022-12-31T16:08:33;14.00;99.90
31837;DHT22;18401;49.344;6.240;2022-12-31T16:11:02;14.00;99.90
31837;DHT22;18401;49.344;6.240;2022-12-31T16:13:28;14.00;99.90
31837;DHT22;18401;49.344;6.240;2022-12-31T16:16:06;13.90;99.90
31837;DHT22;18401;49.344;6.240;2022-12-31T16:18:41;13.90;99.90
31837;DHT22;18401;49.344;6.240;2022-12-31T16:21:30;13.90;99.90
31837;DHT22;18401;49.344;6.240;2022-12-31T16:24:05;13.90;99.90
31837;DHT22;18401;49.344;6.240;2022-12-31T16:26:44;14.10;99.90
31837;DHT22;18401;49.344;6.240;2022-12-31T16:29:15;14.00;99.90
31837;DHT22;18401;49.344;6.240;2022-12-31T16:31:46;14.00;99.90
31837;DHT22;18401;49.344;6.240;2022-12-31T16:34:17;14.00;99.90
31837;DHT22;18401;49.344;6.240;2022-12-31T16:36:55;14.10;99.90
31837;DHT22;18401;49.344;6.240;2022-12-31T16:44:38;13.90;99.90
31837;DHT22;18401;49.344;6.240;2022-12-31T16:47:05;13.80;99.90
31837;DHT22;18401;49.344;6.240;2022-12-31T16:49:34;13.80;99.90
31837;DHT22;18401;49.344;6.240;2022-12-31T16:52:03;13.90;99.90
31837;DHT22;18401;49.344;6.240;2022-12-31T16:54:38;14.00;99.90
31837;DHT22;18401;49.344;6.240;2022-12-31T16:57:04;13.90;99.90
31837;DHT22;18401;49.344;6.240;2022-12-31T16:59:42;13.90;99.90
31837;DHT22;18401;49.344;6.240;2022-12-31T17:02:17;13.80;99.90
31837;DHT22;18401;49.344;6.240;2022-12-31T17:04:48;13.80;99.90
31837;DHT22;18401;49.344;6.240;2022-12-31T17:12:39;13.80;99.90
31837;DHT22;18401;49.344;6.240;2022-12-31T17:15:06;13.90;99.90
31837;DHT22;18401;49.344;6.240;2022-12-31T17:17:34;13.90;99.90
31837;DHT22;18401;49.344;6.240;2022-12-31T17:20:05;13.90;99.90
31837;DHT22;18401;49.344;6.240;2022-12-31T17:22:34;13.90;99.90
31837;DHT22;18401;49.344;6.240;2022-12-31T17:25:25;13.90;99.90
31837;DHT22;18401;49.344;6.240;2022-12-31T17:27:58;13.90;99.90
31837;DHT22;18401;49.344;6.240;2022-12-31T17:35:48;13.80;99.90
31837;DHT22;18401;49.344;6.240;2022-12-31T17:40:50;13.90;99.90
31837;DHT22;18401;49.344;6.240;2022-12-31T17:43:18;13.80;99.90
31837;DHT22;18401;49.344;6.240;2022-12-31T17:45:45;13.80;99.90
31837;DHT22;18401;49.344;6.240;2022-12-31T17:48:13;13.80;99.90
31837;DHT22;18401;49.344;6.240;2022-12-31T17:50:57;13.70;99.90
31837;DHT22;18401;49.344;6.240;2022-12-31T17:53:23;13.70;99.90
31837;DHT22;18401;49.344;6.240;2022-12-31T17:55:51;13.70;99.90
31837;DHT22;18401;49.344;6.240;2022-12-31T18:01:08;13.60;99.90
31837;DHT22;18401;49.344;6.240;2022-12-31T18:03:35;13.60;99.90
31837;DHT22;18401;49.344;6.240;2022-12-31T18:06:01;13.60;99.90
31837;DHT22;18401;49.344;6.240;2022-12-31T18:08:27;13.60;99.90
31837;DHT22;18401;49.344;6.240;2022-12-31T18:10:53;13.70;99.90
31837;DHT22;18401;49.344;6.240;2022-12-31T18:13:23;13.80;99.90
31837;DHT22;18401;49.344;6.240;2022-12-31T18:15:49;13.70;99.90
31837;DHT22;18401;49.344;6.240;2022-12-31T18:18:23;13.60;99.90
31837;DHT22;18401;49.344;6.240;2022-12-31T18:20:57;13.70;99.90
31837;DHT22;18401;49.344;6.240;2022-12-31T18:23:29;13.60;99.90
31837;DHT22;18401;49.344;6.240;2022-12-31T18:25:55;13.70;99.90
31837;DHT22;18401;49.344;6.240;2022-12-31T18:28:21;13.80;99.90
31837;DHT22;18401;49.344;6.240;2022-12-31T18:30:47;13.70;99.90
31837;DHT22;18401;49.344;6.240;2022-12-31T18:33:14;13.80;99.90
31837;DHT22;18401;49.344;6.240;2022-12-31T18:35:48;13.70;99.90
31837;DHT22;18401;49.344;6.240;2022-12-31T18:38:15;13.70;99.90
31837;DHT22;18401;49.344;6.240;2022-12-31T18:40:43;13.60;99.90
31837;DHT22;18401;49.344;6.240;2022-12-31T18:43:16;13.60;99.90
31837;DHT22;18401;49.344;6.240;2022-12-31T18:45:42;13.60;99.90
31837;DHT22;18401;49.344;6.240;2022-12-31T18:48:08;13.60;99.90
31837;DHT22;18401;49.344;6.240;2022-12-31T18:50:34;13.60;99.90
31837;DHT22;18401;49.344;6.240;2022-12-31T18:53:00;13.60;99.90
31837;DHT22;18401;49.344;6.240;2022-12-31T18:55:33;13.60;99.90
31837;DHT22;18401;49.344;6.240;2022-12-31T18:58:00;13.80;99.90
31837;DHT22;18401;49.344;6.240;2022-12-31T19:00:26;13.80;99.90
31837;DHT22;18401;49.344;6.240;2022-12-31T19:02:51;13.80;99.90
31837;DHT22;18401;49.344;6.240;2022-12-31T19:05:27;13.80;99.90
31837;DHT22;18401;49.344;6.240;2022-12-31T19:07:54;13.90;99.90
31837;DHT22;18401;49.344;6.240;2022-12-31T19:10:20;14.00;99.90
31837;DHT22;18401;49.344;6.240;2022-12-31T19:12:46;14.00;99.90
31837;DHT22;18401;49.344;6.240;2022-12-31T19:15:20;13.90;99.90
31837;DHT22;18401;49.344;6.240;2022-12-31T19:17:47;13.90;99.90
31837;DHT22;18401;49.344;6.240;2022-12-31T19:20:13;13.90;99.90
31837;DHT22;18401;49.344;6.240;2022-12-31T19:22:39;14.00;99.90
31837;DHT22;18401;49.344;6.240;2022-12-31T19:25:26;14.00;99.90
31837;DHT22;18401;49.344;6.240;2022-12-31T19:27:52;13.90;99.90
31837;DHT22;18401;49.344;6.240;2022-12-31T19:30:24;13.90;99.90
31837;DHT22;18401;49.344;6.240;2022-12-31T19:32:50;13.90;99.90
31837;DHT22;18401;49.344;6.240;2022-12-31T19:35:17;13.80;99.90
31837;DHT22;18401;49.344;6.240;2022-12-31T19:37:44;13.80;99.90
31837;DHT22;18401;49.344;6.240;2022-12-31T19:40:19;13.80;99.90
31837;DHT22;18401;49.344;6.240;2022-12-31T19:48:36;13.70;99.90
31837;DHT22;18401;49.344;6.240;2022-12-31T19:51:07;13.70;99.90
31837;DHT22;18401;49.344;6.240;2022-12-31T19:53:32;13.80;99.90
31837;DHT22;18401;49.344;6.240;2022-12-31T19:55:58;13.80;99.90
31837;DHT22;18401;49.344;6.240;2022-12-31T19:58:26;13.70;99.90
31837;DHT22;18401;49.344;6.240;2022-12-31T20:00:54;13.70;99.90
31837;DHT22;18401;49.344;6.240;2022-12-31T20:03:19;13.60;99.90
31837;DHT22;18401;49.344;6.240;2022-12-31T20:05:45;13.70;99.90
31837;DHT22;18401;49.344;6.240;2022-12-31T20:08:12;13.80;99.90